Time;durP1;ratioP1;P1;durP2;ratioP2;P2;SDS_P1;SDS_P2;PMS_P1;PMS_P2;Temp;Humidity;BMP_temperature;BMP_pressure;BME280_temperature;BME280_humidity;BME280_pressure;Samples;Min_cycle;Max_cycle;Signal;HPM_P1;HPM_P2
2021/06/30 00:00:38;;;;;;;12.60;11.50;;;19.70;99.90;;;;;;2089878;28;20025;-69
2021/06/30 00:01:39;;;;;;;13.20;12.10;;;19.70;99.90;;;;;;2089450;28;20017;-69
2021/06/30 00:02:39;;;;;;;11.80;10.80;;;19.70;99.90;;;;;;2089885;28;20100;-69
2021/06/30 00:03:40;;;;;;;10.80;9.90;;;19.80;99.90;;;;;;2089683;28;20028;-69
2021/06/30 00:04:41;;;;;;;10.68;9.68;;;19.70;99.90;;;;;;2089908;28;20056;-69
2021/06/30 00:05:41;;;;;;;11.43;10.50;;;19.80;99.90;;;;;;2089663;28;20025;-69
2021/06/30 00:06:42;;;;;;;10.45;9.55;;;19.70;99.90;;;;;;2089956;28;20449;-69
2021/06/30 00:07:42;;;;;;;8.43;7.72;;;19.80;99.90;;;;;;2089552;28;20029;-69
2021/06/30 00:08:43;;;;;;;11.48;10.50;;;19.80;99.90;;;;;;2089999;28;20386;-69
2021/06/30 00:09:43;;;;;;;11.40;10.40;;;19.80;99.90;;;;;;2089842;28;20468;-69
2021/06/30 00:10:45;;;;;;;12.18;11.23;;;19.80;99.90;;;;;;2089845;28;20029;-69
2021/06/30 00:11:45;;;;;;;11.60;10.60;;;19.80;99.90;;;;;;2089223;28;20021;-69
2021/06/30 00:12:46;;;;;;;11.85;10.85;;;19.80;99.90;;;;;;2089964;28;20476;-69
2021/06/30 00:13:46;;;;;;;12.15;11.00;;;19.80;99.90;;;;;;2089710;28;20028;-69
2021/06/30 00:14:47;;;;;;;8.82;8.13;;;19.80;99.90;;;;;;2089711;28;20107;-69
2021/06/30 00:15:48;;;;;;;12.73;11.52;;;19.80;99.90;;;;;;2089623;28;20086;-69
2021/06/30 00:16:49;;;;;;;12.98;11.93;;;19.80;99.90;;;;;;2089666;28;20345;-69
2021/06/30 00:17:50;;;;;;;12.90;11.82;;;19.80;99.90;;;;;;2089820;28;20063;-69
2021/06/30 00:18:50;;;;;;;13.23;12.00;;;19.80;99.90;;;;;;2089682;28;20082;-69
2021/06/30 00:19:51;;;;;;;11.95;11.00;;;19.70;99.90;;;;;;2089854;28;20029;-69
2021/06/30 00:20:52;;;;;;;11.95;10.88;;;19.80;99.90;;;;;;2089798;28;20465;-69
2021/06/30 00:21:53;;;;;;;13.35;12.18;;;19.70;99.90;;;;;;2089293;28;20013;-69
2021/06/30 00:22:54;;;;;;;12.38;9.25;;;19.70;99.90;;;;;;2089585;28;20472;-69
2021/06/30 00:23:55;;;;;;;10.48;9.57;;;19.80;99.90;;;;;;2090071;28;20480;-69
2021/06/30 00:24:55;;;;;;;10.80;10.00;;;19.70;99.90;;;;;;2089292;28;20021;-69
2021/06/30 00:25:56;;;;;;;9.73;8.93;;;19.70;99.90;;;;;;2089766;28;20232;-69
2021/06/30 00:26:57;;;;;;;11.88;10.68;;;19.70;99.90;;;;;;2089709;28;20506;-69
2021/06/30 00:27:57;;;;;;;11.43;10.48;;;19.80;99.90;;;;;;2089587;28;20060;-69
2021/06/30 00:28:58;;;;;;;12.32;9.32;;;19.80;99.90;;;;;;2089531;28;20052;-69
2021/06/30 00:29:59;;;;;;;7.50;6.88;;;19.70;99.90;;;;;;2089010;28;20538;-69
2021/06/30 00:30:59;;;;;;;9.35;8.55;;;19.70;99.90;;;;;;2088892;28;20549;-69
2021/06/30 00:32:00;;;;;;;9.93;9.10;;;19.70;99.90;;;;;;2088962;28;20708;-68
2021/06/30 00:33:00;;;;;;;9.93;9.13;;;19.70;99.90;;;;;;2088936;28;20021;-69
2021/06/30 00:34:03;;;;;;;10.85;9.75;;;19.80;99.90;;;;;;2089310;28;20111;-69
2021/06/30 00:35:04;;;;;;;10.30;9.30;;;19.80;99.90;;;;;;2089478;28;20033;-69
2021/06/30 00:36:05;;;;;;;9.00;7.88;;;19.80;99.90;;;;;;2089694;28;20029;-69
2021/06/30 00:37:06;;;;;;;8.13;7.32;;;19.70;99.90;;;;;;2089671;28;20034;-69
2021/06/30 00:38:06;;;;;;;7.60;7.00;;;19.70;99.90;;;;;;2089898;28;20025;-69
2021/06/30 00:39:07;;;;;;;9.15;8.45;;;19.70;99.90;;;;;;2089374;28;20131;-69
2021/06/30 00:40:10;;;;;;;7.88;7.03;;;19.70;99.90;;;;;;2089485;28;20529;-69
2021/06/30 00:41:10;;;;;;;7.55;6.95;;;19.80;99.90;;;;;;2089353;28;20029;-69
2021/06/30 00:42:11;;;;;;;8.82;8.02;;;19.70;99.90;;;;;;2088795;28;20024;-69
2021/06/30 00:43:11;;;;;;;9.38;8.57;;;19.80;99.90;;;;;;2089504;28;20024;-69
2021/06/30 00:44:12;;;;;;;9.20;8.40;;;19.80;99.90;;;;;;2089485;28;20021;-69
2021/06/30 00:45:17;;;;;;;8.55;7.80;;;19.70;99.90;;;;;;2089500;28;20028;-69
2021/06/30 00:46:29;;;;;;;9.65;8.75;;;19.70;99.90;;;;;;2089711;28;20108;-69
2021/06/30 00:47:29;;;;;;;8.00;7.20;;;19.80;99.90;;;;;;2089380;28;20480;-69
2021/06/30 00:48:30;;;;;;;9.40;8.52;;;19.70;99.90;;;;;;2089707;28;20414;-68
2021/06/30 00:49:30;;;;;;;8.10;7.30;;;19.70;99.90;;;;;;2088453;28;20055;-68
2021/06/30 00:50:31;;;;;;;7.75;7.07;;;19.70;99.90;;;;;;2089025;28;20052;-69
2021/06/30 00:51:32;;;;;;;8.38;7.63;;;19.80;99.90;;;;;;2088778;28;20035;-69
2021/06/30 00:52:33;;;;;;;8.68;7.97;;;19.70;99.90;;;;;;2089398;28;20025;-69
2021/06/30 00:53:33;;;;;;;9.43;8.55;;;19.70;99.90;;;;;;2089536;28;20017;-69
2021/06/30 00:54:34;;;;;;;7.50;6.80;;;19.70;99.90;;;;;;2089517;28;20028;-69
2021/06/30 00:55:35;;;;;;;8.68;7.97;;;19.70;99.90;;;;;;2089356;28;20025;-69
2021/06/30 00:56:36;;;;;;;9.48;8.57;;;19.70;99.90;;;;;;2089584;28;20043;-69
2021/06/30 00:57:37;;;;;;;8.43;7.72;;;19.70;99.90;;;;;;2089480;28;20021;-69
2021/06/30 00:58:39;;;;;;;8.63;7.95;;;19.70;99.90;;;;;;2089495;28;20021;-69
2021/06/30 00:59:40;;;;;;;6.68;6.07;;;19.70;99.90;;;;;;2089419;28;20029;-69
2021/06/30 01:00:40;;;;;;;7.13;6.53;;;19.70;99.90;;;;;;2090145;28;20476;-69
2021/06/30 01:01:41;;;;;;;7.53;6.82;;;19.70;99.90;;;;;;2088805;28;20524;-69
2021/06/30 01:02:41;;;;;;;7.32;6.72;;;19.70;99.90;;;;;;2096804;28;20495;-69
2021/06/30 01:03:42;;;;;;;8.23;7.43;;;19.70;99.90;;;;;;2097219;28;20019;-69
2021/06/30 01:04:43;;;;;;;7.28;6.57;;;19.70;99.90;;;;;;2089351;28;20402;-69
2021/06/30 01:05:43;;;;;;;7.47;6.55;;;19.70;99.90;;;;;;2089202;28;20476;-69
2021/06/30 01:06:44;;;;;;;6.80;6.13;;;19.70;99.90;;;;;;2089148;28;20025;-69
2021/06/30 01:07:44;;;;;;;6.47;5.88;;;19.60;99.90;;;;;;2089550;28;20025;-69
2021/06/30 01:08:45;;;;;;;6.10;5.60;;;19.60;99.90;;;;;;2089428;28;20051;-69
2021/06/30 01:09:46;;;;;;;7.03;6.50;;;19.60;99.90;;;;;;2089371;28;20037;-69
2021/06/30 01:10:47;;;;;;;6.78;6.28;;;19.60;99.90;;;;;;2088481;28;20052;-69
2021/06/30 01:11:47;;;;;;;6.50;6.00;;;19.60;99.90;;;;;;2085081;28;20025;-69
2021/06/30 01:12:48;;;;;;;7.10;6.00;;;19.60;99.90;;;;;;2094590;28;20039;-69
2021/06/30 01:13:51;;;;;;;5.25;4.85;;;19.60;99.90;;;;;;2096580;28;20389;-69
2021/06/30 01:14:52;;;;;;;7.50;6.90;;;19.60;99.90;;;;;;2093049;28;20038;-69
2021/06/30 01:15:56;;;;;;;5.65;5.15;;;19.60;99.90;;;;;;2097711;28;20021;-69
2021/06/30 01:16:57;;;;;;;6.68;6.07;;;19.60;99.90;;;;;;2097662;28;20222;-69
2021/06/30 01:17:58;;;;;;;6.80;6.15;;;19.50;99.90;;;;;;2097214;28;20040;-69
2021/06/30 01:18:59;;;;;;;5.10;4.70;;;19.50;99.90;;;;;;2097709;28;20027;-69
2021/06/30 01:20:00;;;;;;;5.40;4.90;;;19.60;99.90;;;;;;2097694;28;20472;-69
2021/06/30 01:21:02;;;;;;;6.40;5.90;;;19.60;99.90;;;;;;2097755;28;20028;-69
2021/06/30 01:22:05;;;;;;;6.35;5.75;;;19.50;99.90;;;;;;2096795;28;20396;-69
2021/06/30 01:23:07;;;;;;;5.85;5.25;;;19.50;99.90;;;;;;2097556;28;20024;-69
2021/06/30 01:24:08;;;;;;;6.18;5.68;;;19.60;99.90;;;;;;2097916;28;20031;-69
2021/06/30 01:25:08;;;;;;;6.82;6.22;;;19.60;99.90;;;;;;2097453;28;20059;-69
2021/06/30 01:26:10;;;;;;;7.00;6.40;;;19.60;99.90;;;;;;2097571;28;20067;-69
2021/06/30 01:27:13;;;;;;;6.20;5.40;;;19.50;99.90;;;;;;2097566;28;20024;-69
2021/06/30 01:28:15;;;;;;;6.97;6.30;;;19.60;99.90;;;;;;2097537;28;20422;-69
2021/06/30 01:29:19;;;;;;;6.35;5.82;;;19.50;99.90;;;;;;2097529;28;20528;-69
2021/06/30 01:30:19;;;;;;;5.75;5.25;;;19.50;99.90;;;;;;2097457;28;20083;-69
2021/06/30 01:31:20;;;;;;;5.90;5.38;;;19.50;99.90;;;;;;2097512;28;20047;-69
2021/06/30 01:32:21;;;;;;;6.53;5.80;;;19.50;99.90;;;;;;2104778;28;20079;-69
2021/06/30 01:33:22;;;;;;;6.32;5.93;;;19.50;99.90;;;;;;2105101;28;20051;-69
2021/06/30 01:34:23;;;;;;;8.18;7.47;;;19.50;99.90;;;;;;2097398;28;20051;-69
2021/06/30 01:35:24;;;;;;;10.32;7.13;;;19.50;99.90;;;;;;2097558;28;20499;-69
2021/06/30 01:36:25;;;;;;;7.15;5.97;;;19.50;99.90;;;;;;2091350;28;20020;-69
2021/06/30 01:37:26;;;;;;;7.65;6.57;;;19.50;99.90;;;;;;2089184;28;20100;-69
2021/06/30 01:38:28;;;;;;;10.13;8.30;;;19.50;99.90;;;;;;2089191;28;20468;-69
2021/06/30 01:39:28;;;;;;;8.00;7.25;;;19.50;99.90;;;;;;2089304;28;20025;-69
2021/06/30 01:40:30;;;;;;;8.30;7.60;;;19.50;99.90;;;;;;2089456;28;20032;-69
2021/06/30 01:41:31;;;;;;;9.57;8.75;;;19.50;99.90;;;;;;2088681;28;20074;-69
2021/06/30 01:42:31;;;;;;;9.52;8.68;;;19.50;99.90;;;;;;2096675;28;20074;-69
2021/06/30 01:43:32;;;;;;;12.30;9.95;;;19.50;99.90;;;;;;2096801;28;20045;-69
2021/06/30 01:44:33;;;;;;;9.20;8.30;;;19.50;99.90;;;;;;2089315;28;20029;-69
2021/06/30 01:45:34;;;;;;;7.70;6.75;;;19.50;99.90;;;;;;2090417;28;20471;-69
2021/06/30 01:46:34;;;;;;;9.32;8.52;;;19.50;99.90;;;;;;2091137;28;20017;-69
2021/06/30 01:47:35;;;;;;;11.07;10.07;;;19.50;99.90;;;;;;2090952;28;20405;-69
2021/06/30 01:48:35;;;;;;;9.90;9.00;;;19.50;99.90;;;;;;2090363;28;20116;-69
2021/06/30 01:49:40;;;;;;;10.07;9.18;;;19.50;99.90;;;;;;2090107;28;20438;-69
2021/06/30 01:50:41;;;;;;;7.88;7.18;;;19.50;99.90;;;;;;2091188;28;20029;-69
2021/06/30 01:51:42;;;;;;;9.52;8.73;;;19.50;99.90;;;;;;2090217;28;20040;-69
2021/06/30 01:52:43;;;;;;;11.00;9.32;;;19.50;99.90;;;;;;2090866;28;20045;-69
2021/06/30 01:53:44;;;;;;;9.30;8.45;;;19.40;99.90;;;;;;2090689;28;20032;-69
2021/06/30 01:54:44;;;;;;;9.15;8.32;;;19.50;99.90;;;;;;2091104;28;20032;-69
2021/06/30 01:55:45;;;;;;;11.43;10.02;;;19.50;99.90;;;;;;2090621;28;20013;-69
2021/06/30 01:56:49;;;;;;;10.70;9.52;;;19.50;99.90;;;;;;2090911;28;20021;-69
2021/06/30 01:57:50;;;;;;;8.85;8.00;;;19.50;99.90;;;;;;2090724;28;20048;-69
2021/06/30 01:59:02;;;;;;;9.27;8.32;;;19.50;99.90;;;;;;2091038;28;20427;-69
2021/06/30 02:00:03;;;;;;;10.38;9.30;;;19.50;99.90;;;;;;2090768;28;20042;-69
2021/06/30 02:01:04;;;;;;;9.30;8.50;;;19.50;99.90;;;;;;2090892;28;20025;-69
2021/06/30 02:02:05;;;;;;;10.02;8.90;;;19.50;99.90;;;;;;2097555;28;20048;-69
2021/06/30 02:03:05;;;;;;;9.05;8.23;;;19.40;99.90;;;;;;2098641;28;20115;-69
2021/06/30 02:04:07;;;;;;;6.93;6.40;;;19.40;99.90;;;;;;2090833;28;20025;-69
2021/06/30 02:05:16;;;;;;;8.13;7.32;;;19.40;99.90;;;;;;2090594;28;20037;-69
2021/06/30 02:06:16;;;;;;;9.05;8.25;;;19.40;99.90;;;;;;2090852;28;20519;-69
2021/06/30 02:07:17;;;;;;;7.57;6.88;;;19.40;99.90;;;;;;2090989;28;20080;-69
2021/06/30 02:08:18;;;;;;;9.32;8.55;;;19.40;99.90;;;;;;2090600;28;20060;-69
2021/06/30 02:09:18;;;;;;;9.18;8.32;;;19.40;99.90;;;;;;2090811;28;20057;-69
2021/06/30 02:10:21;;;;;;;9.32;8.25;;;19.40;99.90;;;;;;2090704;28;20057;-69
2021/06/30 02:11:22;;;;;;;8.82;7.35;;;19.40;99.90;;;;;;2090691;28;20017;-69
2021/06/30 02:12:23;;;;;;;9.23;7.88;;;19.30;99.90;;;;;;2090154;28;20032;-69
2021/06/30 02:13:23;;;;;;;11.80;7.18;;;19.30;99.90;;;;;;2090527;28;20021;-69
2021/06/30 02:14:24;;;;;;;8.45;7.75;;;19.30;99.90;;;;;;2090512;28;20071;-69
2021/06/30 02:15:30;;;;;;;6.72;6.13;;;19.30;99.90;;;;;;2090806;28;20376;-69
2021/06/30 02:16:31;;;;;;;8.52;7.82;;;19.40;99.90;;;;;;2090556;28;20048;-69
2021/06/30 02:17:32;;;;;;;7.50;6.80;;;19.30;99.90;;;;;;2090090;28;20037;-69
2021/06/30 02:18:32;;;;;;;8.82;7.97;;;19.40;99.90;;;;;;2089942;28;20036;-69
2021/06/30 02:19:33;;;;;;;7.80;7.05;;;19.30;99.90;;;;;;2090960;28;20379;-69
2021/06/30 02:20:34;;;;;;;8.18;7.38;;;19.30;99.90;;;;;;2090634;28;20039;-69
2021/06/30 02:21:35;;;;;;;8.00;7.30;;;19.30;99.90;;;;;;2090199;28;20060;-69
2021/06/30 02:22:39;;;;;;;7.32;6.68;;;19.40;99.90;;;;;;2090491;28;20428;-69
2021/06/30 02:23:40;;;;;;;9.93;8.90;;;19.30;99.90;;;;;;2090714;28;20111;-69
2021/06/30 02:24:40;;;;;;;7.63;6.85;;;19.30;99.90;;;;;;2090290;28;20021;-69
2021/06/30 02:25:41;;;;;;;9.23;8.48;;;19.40;99.90;;;;;;2090828;28;20029;-69
2021/06/30 02:26:42;;;;;;;9.98;8.90;;;19.30;99.90;;;;;;2090617;28;20444;-69
2021/06/30 02:27:43;;;;;;;9.70;8.65;;;19.30;99.90;;;;;;2090584;28;20039;-69
2021/06/30 02:28:44;;;;;;;8.82;8.02;;;19.30;99.90;;;;;;2090688;28;20055;-69
2021/06/30 02:29:44;;;;;;;7.65;7.05;;;19.30;99.90;;;;;;2090474;28;20036;-69
2021/06/30 02:30:45;;;;;;;9.57;8.68;;;19.30;99.90;;;;;;2090958;28;20349;-69
2021/06/30 02:31:45;;;;;;;8.35;7.30;;;19.30;99.90;;;;;;2089709;28;20017;-69
2021/06/30 02:32:46;;;;;;;8.20;7.47;;;19.30;99.90;;;;;;2098126;28;20031;-69
2021/06/30 02:33:47;;;;;;;10.38;9.35;;;19.30;99.90;;;;;;2098159;28;20071;-69
2021/06/30 02:34:48;;;;;;;9.75;8.85;;;19.30;99.90;;;;;;2090391;28;20027;-69
2021/06/30 02:35:48;;;;;;;12.25;8.55;;;19.30;99.90;;;;;;2090538;28;20455;-69
2021/06/30 02:36:49;;;;;;;8.82;7.95;;;19.30;99.90;;;;;;2090797;28;20017;-69
2021/06/30 02:37:52;;;;;;;10.98;8.32;;;19.30;99.90;;;;;;2090366;28;20021;-69
2021/06/30 02:38:53;;;;;;;9.25;8.27;;;19.30;99.90;;;;;;2090695;28;20043;-69
2021/06/30 02:39:53;;;;;;;10.20;9.25;;;19.30;99.90;;;;;;2090353;28;20029;-69
2021/06/30 02:40:54;;;;;;;10.10;9.20;;;19.30;99.90;;;;;;2090726;28;20047;-69
2021/06/30 02:41:54;;;;;;;9.40;8.50;;;19.20;99.90;;;;;;2090215;28;20430;-69
2021/06/30 02:42:56;;;;;;;11.00;9.93;;;19.20;99.90;;;;;;2090308;28;20109;-69
2021/06/30 02:43:56;;;;;;;10.32;9.27;;;19.20;99.90;;;;;;2090427;28;20098;-69
2021/06/30 02:44:57;;;;;;;9.98;8.93;;;19.20;99.90;;;;;;2090600;28;20071;-69
2021/06/30 02:45:58;;;;;;;11.07;8.63;;;19.20;99.90;;;;;;2090543;28;20025;-69
2021/06/30 02:46:58;;;;;;;10.93;10.00;;;19.20;99.90;;;;;;2090538;28;20047;-69
2021/06/30 02:47:59;;;;;;;10.70;9.75;;;19.20;99.90;;;;;;2090169;28;20060;-69
2021/06/30 02:48:59;;;;;;;14.50;12.70;;;19.20;99.90;;;;;;2090589;28;20095;-69
2021/06/30 02:50:00;;;;;;;12.10;10.90;;;19.20;99.90;;;;;;2090353;28;20032;-69
2021/06/30 02:51:00;;;;;;;14.07;12.60;;;19.20;99.90;;;;;;2090651;28;20384;-69
2021/06/30 02:52:01;;;;;;;13.27;11.88;;;19.20;99.90;;;;;;2089756;28;20072;-69
2021/06/30 02:53:02;;;;;;;12.77;10.77;;;19.20;99.90;;;;;;2090603;28;20483;-69
2021/06/30 02:54:02;;;;;;;14.63;12.48;;;19.20;99.90;;;;;;2090250;28;20056;-69
2021/06/30 02:55:07;;;;;;;13.35;12.05;;;19.20;99.90;;;;;;2090508;28;20494;-69
2021/06/30 02:56:08;;;;;;;11.48;10.40;;;19.20;99.90;;;;;;2089730;28;20021;-69
2021/06/30 02:57:08;;;;;;;13.48;11.85;;;19.20;99.90;;;;;;2089970;28;20044;-69
2021/06/30 02:58:09;;;;;;;10.65;9.73;;;19.20;99.90;;;;;;2090465;28;20020;-69
2021/06/30 02:59:10;;;;;;;10.27;9.30;;;19.20;99.90;;;;;;2090177;28;20061;-69
2021/06/30 03:00:25;;;;;;;11.32;10.27;;;19.20;99.90;;;;;;2090093;28;20028;-69
2021/06/30 03:01:26;;;;;;;9.57;8.68;;;19.20;99.90;;;;;;2090140;28;20455;-69
2021/06/30 03:02:26;;;;;;;9.55;8.65;;;19.10;99.90;;;;;;2089959;28;20185;-69
2021/06/30 03:03:27;;;;;;;11.15;9.52;;;19.20;99.90;;;;;;2090100;28;20033;-69
2021/06/30 03:04:27;;;;;;;10.95;9.75;;;19.20;99.90;;;;;;2090211;28;20106;-69
2021/06/30 03:05:28;;;;;;;11.40;10.40;;;19.20;99.90;;;;;;2098018;28;20032;-69
2021/06/30 03:06:28;;;;;;;10.43;9.43;;;19.10;99.90;;;;;;2098025;28;20029;-69
2021/06/30 03:07:29;;;;;;;9.73;8.82;;;19.20;99.90;;;;;;2090176;28;20040;-69
2021/06/30 03:08:29;;;;;;;11.38;10.18;;;19.10;99.90;;;;;;2090193;28;20095;-69
2021/06/30 03:09:30;;;;;;;10.30;9.40;;;19.10;99.90;;;;;;2090447;28;20053;-69
2021/06/30 03:10:30;;;;;;;11.98;8.13;;;19.10;99.90;;;;;;2090239;28;20057;-69
2021/06/30 03:11:31;;;;;;;10.45;9.43;;;19.10;99.90;;;;;;2089551;28;20116;-69
2021/06/30 03:12:32;;;;;;;9.95;9.05;;;19.10;99.90;;;;;;2093441;28;20025;-69
2021/06/30 03:13:32;;;;;;;9.93;9.10;;;19.10;99.90;;;;;;2097386;28;20025;-69
2021/06/30 03:14:33;;;;;;;12.75;11.07;;;19.10;99.90;;;;;;2094771;28;20025;-69
2021/06/30 03:15:33;;;;;;;10.70;9.70;;;19.10;99.90;;;;;;2090410;28;20047;-69
2021/06/30 03:16:34;;;;;;;10.75;9.73;;;19.10;99.90;;;;;;2090267;28;20028;-69
2021/06/30 03:17:35;;;;;;;10.63;9.73;;;19.10;99.90;;;;;;2090107;28;20021;-69
2021/06/30 03:18:36;;;;;;;7.57;6.97;;;19.00;99.90;;;;;;2090281;28;20023;-69
2021/06/30 03:19:36;;;;;;;13.02;8.80;;;19.10;99.90;;;;;;2090106;28;20505;-69
2021/06/30 03:20:37;;;;;;;9.48;8.57;;;19.00;99.90;;;;;;2090377;28;20025;-69
2021/06/30 03:21:37;;;;;;;10.50;9.52;;;19.00;99.90;;;;;;2089462;28;20056;-69
2021/06/30 03:22:41;;;;;;;11.88;9.32;;;19.00;99.90;;;;;;2097921;28;20447;-69
2021/06/30 03:23:42;;;;;;;7.90;7.20;;;19.00;99.90;;;;;;2097259;28;20035;-69
2021/06/30 03:24:42;;;;;;;13.18;9.43;;;19.00;99.90;;;;;;2090026;28;20060;-69
2021/06/30 03:25:43;;;;;;;9.63;8.73;;;19.00;99.90;;;;;;2090207;28;20487;-69
2021/06/30 03:26:44;;;;;;;8.25;7.55;;;19.00;99.90;;;;;;2090243;28;20033;-69
2021/06/30 03:27:44;;;;;;;8.80;8.10;;;19.00;99.90;;;;;;2090192;28;20045;-69
2021/06/30 03:28:45;;;;;;;9.88;8.98;;;19.00;99.90;;;;;;2089551;28;20028;-69
2021/06/30 03:29:46;;;;;;;8.90;8.10;;;19.00;99.90;;;;;;2090587;28;20031;-69
2021/06/30 03:30:47;;;;;;;9.35;8.32;;;18.90;99.90;;;;;;2095954;28;20025;-69
2021/06/30 03:31:47;;;;;;;9.93;9.02;;;19.00;99.90;;;;;;2095531;28;20082;-69
2021/06/30 03:32:48;;;;;;;11.20;9.00;;;18.90;99.90;;;;;;2095431;28;20096;-69
2021/06/30 03:33:49;;;;;;;9.35;8.25;;;19.00;99.90;;;;;;2089935;28;20032;-69
2021/06/30 03:34:49;;;;;;;9.93;8.95;;;18.90;99.90;;;;;;2097528;28;20012;-69
2021/06/30 03:35:50;;;;;;;13.13;10.63;;;18.90;99.90;;;;;;2096354;28;20033;-69
2021/06/30 03:36:50;;;;;;;8.52;7.05;;;18.90;99.90;;;;;;2090299;28;20100;-69
2021/06/30 03:37:51;;;;;;;9.98;9.18;;;18.90;99.90;;;;;;2089718;28;20099;-69
2021/06/30 03:38:53;;;;;;;11.52;8.77;;;18.90;99.90;;;;;;2090265;28;20029;-69
2021/06/30 03:39:53;;;;;;;9.65;8.73;;;18.90;99.90;;;;;;2089887;28;20029;-69
2021/06/30 03:40:54;;;;;;;9.80;7.25;;;18.90;99.90;;;;;;2090143;28;20029;-69
2021/06/30 03:41:55;;;;;;;8.57;7.07;;;18.90;99.90;;;;;;2089491;28;20365;-69
2021/06/30 03:42:55;;;;;;;9.40;8.60;;;18.90;99.90;;;;;;2089909;28;20029;-69
2021/06/30 03:43:56;;;;;;;8.98;8.18;;;18.90;99.90;;;;;;2089879;28;20036;-69
2021/06/30 03:44:56;;;;;;;10.38;9.45;;;18.90;99.90;;;;;;2090152;28;20491;-69
2021/06/30 03:45:57;;;;;;;10.18;8.45;;;18.90;99.90;;;;;;2089373;28;20033;-69
2021/06/30 03:46:57;;;;;;;8.50;7.82;;;18.90;99.90;;;;;;2089666;28;20385;-69
2021/06/30 03:47:58;;;;;;;8.60;7.75;;;18.90;99.90;;;;;;2089620;28;20028;-69
2021/06/30 03:48:59;;;;;;;9.35;8.45;;;18.90;99.90;;;;;;2089938;28;20460;-69
2021/06/30 03:50:00;;;;;;;8.82;8.02;;;18.90;99.90;;;;;;2090137;28;20056;-69
2021/06/30 03:51:00;;;;;;;9.65;8.80;;;18.90;99.90;;;;;;2089996;28;20025;-69
2021/06/30 03:52:01;;;;;;;8.50;7.60;;;18.90;99.90;;;;;;2089396;28;20032;-69
2021/06/30 03:53:01;;;;;;;8.60;7.88;;;18.80;99.90;;;;;;2089902;28;20067;-69
2021/06/30 03:54:03;;;;;;;9.18;8.35;;;18.90;99.90;;;;;;2089986;28;20027;-69
2021/06/30 03:55:05;;;;;;;8.85;8.15;;;18.90;99.90;;;;;;2089842;28;20078;-69
2021/06/30 03:56:05;;;;;;;7.72;7.00;;;18.90;99.90;;;;;;2090086;28;20476;-69
2021/06/30 03:57:06;;;;;;;10.10;7.85;;;18.90;99.90;;;;;;2089942;28;20589;-69
2021/06/30 03:58:06;;;;;;;8.77;8.07;;;18.90;99.90;;;;;;2089959;28;20029;-69
2021/06/30 03:59:07;;;;;;;8.05;7.30;;;18.90;99.90;;;;;;2089832;28;20032;-69
2021/06/30 04:00:09;;;;;;;8.10;7.35;;;18.90;99.90;;;;;;2089937;28;20021;-69
2021/06/30 04:01:09;;;;;;;9.23;8.32;;;18.90;99.90;;;;;;2089729;28;20108;-69
2021/06/30 04:02:11;;;;;;;9.85;8.85;;;18.90;99.90;;;;;;2089336;28;20025;-69
2021/06/30 04:03:12;;;;;;;8.77;7.93;;;18.90;99.90;;;;;;2089631;28;20361;-69
2021/06/30 04:04:13;;;;;;;9.32;8.43;;;18.90;99.90;;;;;;2089721;28;20082;-69
2021/06/30 04:05:14;;;;;;;10.07;9.25;;;18.90;99.90;;;;;;2089731;28;20017;-69
2021/06/30 04:06:15;;;;;;;9.63;8.73;;;18.90;99.90;;;;;;2090190;28;20032;-69
2021/06/30 04:07:15;;;;;;;7.93;7.20;;;18.90;99.90;;;;;;2089682;28;20056;-69
2021/06/30 04:08:16;;;;;;;8.68;7.95;;;18.90;99.90;;;;;;2089894;28;20021;-69
2021/06/30 04:09:17;;;;;;;8.90;8.10;;;18.90;99.90;;;;;;2089677;28;20029;-69
2021/06/30 04:10:18;;;;;;;7.13;6.40;;;18.90;99.90;;;;;;2089771;28;20025;-69
2021/06/30 04:11:19;;;;;;;7.75;7.05;;;18.90;99.90;;;;;;2089390;28;20091;-69
2021/06/30 04:12:21;;;;;;;9.48;8.05;;;18.90;99.90;;;;;;2089357;28;20025;-69
2021/06/30 04:13:21;;;;;;;7.45;6.78;;;19.00;99.90;;;;;;2089708;28;20017;-69
2021/06/30 04:14:22;;;;;;;9.55;8.60;;;19.00;99.90;;;;;;2089820;28;20468;-69
2021/06/30 04:15:22;;;;;;;9.70;7.82;;;18.90;99.90;;;;;;2089700;28;20078;-69
2021/06/30 04:16:23;;;;;;;7.93;7.28;;;18.90;99.90;;;;;;2090110;28;20105;-69
2021/06/30 04:17:24;;;;;;;11.07;9.45;;;19.00;99.90;;;;;;2089617;28;20023;-69
2021/06/30 04:18:24;;;;;;;8.25;7.45;;;19.00;99.90;;;;;;2089919;28;20028;-69
2021/06/30 04:19:25;;;;;;;9.45;8.65;;;19.00;99.90;;;;;;2089290;28;20025;-69
2021/06/30 04:20:26;;;;;;;10.98;8.40;;;19.00;99.90;;;;;;2089727;28;20104;-69
2021/06/30 04:21:26;;;;;;;9.35;8.45;;;19.00;99.90;;;;;;2089323;28;20060;-69
2021/06/30 04:22:27;;;;;;;11.68;7.63;;;19.00;99.90;;;;;;2089709;28;20136;-69
2021/06/30 04:23:28;;;;;;;8.35;7.65;;;19.00;99.90;;;;;;2097236;28;20074;-69
2021/06/30 04:24:28;;;;;;;8.93;8.13;;;19.00;99.90;;;;;;2097366;28;20400;-69
2021/06/30 04:25:29;;;;;;;9.57;8.50;;;19.00;99.90;;;;;;2089675;28;20030;-69
2021/06/30 04:26:29;;;;;;;9.15;8.25;;;19.00;99.90;;;;;;2089769;28;20120;-69
2021/06/30 04:27:31;;;;;;;7.03;6.50;;;19.00;99.90;;;;;;2089811;28;20514;-69
2021/06/30 04:28:32;;;;;;;7.97;7.28;;;19.00;99.90;;;;;;2089865;28;20357;-69
2021/06/30 04:29:32;;;;;;;9.77;8.18;;;19.00;99.90;;;;;;2089385;28;20031;-69
2021/06/30 04:30:33;;;;;;;10.68;8.30;;;19.00;99.90;;;;;;2089667;28;20595;-69
2021/06/30 04:31:34;;;;;;;7.32;6.65;;;19.00;99.90;;;;;;2089156;28;20448;-69
2021/06/30 04:32:34;;;;;;;8.23;7.43;;;19.00;99.90;;;;;;2089292;28;20029;-69
2021/06/30 04:33:35;;;;;;;9.10;8.20;;;19.00;99.90;;;;;;2089789;28;20021;-69
2021/06/30 04:34:35;;;;;;;8.18;7.47;;;19.00;99.90;;;;;;2089379;28;20476;-69
2021/06/30 04:35:36;;;;;;;7.18;6.45;;;19.00;99.90;;;;;;2089870;28;20032;-69
2021/06/30 04:36:37;;;;;;;7.22;6.43;;;19.00;99.90;;;;;;2089502;28;20353;-69
2021/06/30 04:37:37;;;;;;;8.80;7.63;;;19.00;99.90;;;;;;2089619;28;20474;-69
2021/06/30 04:38:38;;;;;;;9.35;8.15;;;19.00;99.90;;;;;;2089589;28;20025;-69
2021/06/30 04:39:38;;;;;;;11.48;8.70;;;19.00;99.90;;;;;;2089430;28;20025;-69
2021/06/30 04:40:39;;;;;;;8.35;7.63;;;19.00;99.90;;;;;;2089489;28;20021;-69
2021/06/30 04:41:40;;;;;;;8.48;7.68;;;19.00;99.90;;;;;;2089139;28;20086;-69
2021/06/30 04:42:40;;;;;;;7.68;7.03;;;19.00;99.90;;;;;;2089537;28;20032;-69
2021/06/30 04:43:41;;;;;;;7.88;7.28;;;19.00;99.90;;;;;;2089575;28;20060;-69
2021/06/30 04:44:42;;;;;;;9.43;8.52;;;19.00;99.90;;;;;;2089273;28;20403;-69
2021/06/30 04:45:42;;;;;;;7.82;7.13;;;19.00;99.90;;;;;;2089780;28;20047;-69
2021/06/30 04:46:43;;;;;;;7.60;6.90;;;19.00;99.90;;;;;;2089450;28;20086;-69
2021/06/30 04:47:43;;;;;;;7.10;6.50;;;19.00;99.90;;;;;;2089422;28;20052;-69
2021/06/30 04:48:44;;;;;;;10.27;8.05;;;19.00;99.90;;;;;;2089270;28;20108;-69
2021/06/30 04:49:44;;;;;;;8.05;7.43;;;19.00;99.90;;;;;;2089575;28;20029;-69
2021/06/30 04:50:45;;;;;;;7.57;6.88;;;19.10;99.90;;;;;;2089456;28;20511;-69
2021/06/30 04:51:46;;;;;;;10.68;7.95;;;19.10;99.90;;;;;;2089081;28;20380;-69
2021/06/30 04:52:46;;;;;;;8.40;7.57;;;19.00;99.90;;;;;;2089300;28;20033;-69
2021/06/30 04:53:49;;;;;;;8.00;7.18;;;19.10;99.90;;;;;;2089583;28;20021;-69
2021/06/30 04:54:49;;;;;;;7.30;6.68;;;19.10;99.90;;;;;;2089234;28;20055;-69
2021/06/30 04:55:50;;;;;;;8.80;7.55;;;19.10;99.90;;;;;;2089684;28;20025;-69
2021/06/30 04:56:51;;;;;;;9.98;8.65;;;19.10;99.90;;;;;;2089475;28;20023;-69
2021/06/30 04:57:51;;;;;;;7.53;6.85;;;19.10;99.90;;;;;;2089385;28;20013;-69
2021/06/30 04:58:52;;;;;;;6.68;6.07;;;19.10;99.90;;;;;;2089483;28;20036;-69
2021/06/30 04:59:52;;;;;;;7.80;7.10;;;19.10;99.90;;;;;;2089365;28;20385;-69
2021/06/30 05:00:55;;;;;;;9.30;8.38;;;19.10;99.90;;;;;;2089511;28;20387;-69
2021/06/30 05:01:55;;;;;;;9.52;8.68;;;19.10;99.90;;;;;;2096615;28;20059;-69
2021/06/30 05:02:56;;;;;;;10.07;9.07;;;19.10;99.90;;;;;;2096990;28;20028;-69
2021/06/30 05:03:56;;;;;;;8.80;8.02;;;19.10;99.90;;;;;;2089363;28;20624;-69
2021/06/30 05:04:57;;;;;;;12.02;9.80;;;19.10;99.90;;;;;;2089296;28;20029;-69
2021/06/30 05:05:58;;;;;;;11.65;8.40;;;19.10;99.90;;;;;;2089534;28;20021;-69
2021/06/30 05:06:58;;;;;;;7.90;7.25;;;19.10;99.90;;;;;;2089295;28;20037;-69
2021/06/30 05:07:59;;;;;;;9.98;9.00;;;19.10;99.90;;;;;;2089348;28;20036;-69
2021/06/30 05:08:59;;;;;;;10.00;8.93;;;19.10;99.90;;;;;;2089261;28;20075;-69
2021/06/30 05:10:00;;;;;;;8.18;7.47;;;19.10;99.90;;;;;;2089180;28;20021;-69
2021/06/30 05:11:00;;;;;;;8.93;8.13;;;19.10;99.90;;;;;;2089508;28;20112;-69
2021/06/30 05:12:01;;;;;;;9.40;8.50;;;19.10;99.90;;;;;;2088877;28;20021;-69
2021/06/30 05:13:02;;;;;;;8.82;7.93;;;19.10;99.90;;;;;;2089496;28;20031;-69
2021/06/30 05:14:03;;;;;;;8.90;8.10;;;19.10;99.90;;;;;;2089439;28;20025;-69
2021/06/30 05:15:04;;;;;;;8.73;7.68;;;19.10;99.90;;;;;;2089167;28;20025;-69
2021/06/30 05:16:04;;;;;;;8.98;8.25;;;19.10;99.90;;;;;;2089652;28;20017;-69